Time;durP1;ratioP1;P1;durP2;ratioP2;P2;SDS_P1;SDS_P2;PMS_P1;PMS_P2;Temp;Humidity;BMP_temperature;BMP_pressure;BME280_temperature;BME280_humidity;BME280_pressure;Samples;Min_cycle;Max_cycle;Signal;HPM_P1;HPM_P2
2022/10/10 00:02:25;;;;;;;9.05;5.13;;;;;;;8.87;100.00;101167.88;5043633;28;20514;-82
2022/10/10 00:04:52;;;;;;;14.68;5.90;;;;;;;8.81;100.00;101163.72;5043884;28;20075;-82
2022/10/10 00:07:19;;;;;;;17.60;5.03;;;;;;;8.77;100.00;101157.59;5056281;28;20049;-82
2022/10/10 00:09:44;;;;;;;12.02;4.82;;;;;;;8.75;100.00;101156.78;5047188;28;20100;-80
2022/10/10 00:12:10;;;;;;;8.55;4.97;;;;;;;8.79;100.00;101166.53;5014366;28;20068;-82
2022/10/10 00:14:35;;;;;;;9.68;4.20;;;;;;;8.73;100.00;101153.28;5066585;28;20052;-82
2022/10/10 00:17:01;;;;;;;9.55;4.57;;;;;;;8.77;100.00;101162.16;5044997;28;20056;-82
2022/10/10 00:19:26;;;;;;;9.32;5.65;;;;;;;8.57;100.00;101128.88;5044041;28;20037;-81
2022/10/10 00:21:52;;;;;;;11.65;5.13;;;;;;;8.67;100.00;101161.88;5042469;28;20033;-80
2022/10/10 00:24:17;;;;;;;8.63;4.47;;;;;;;8.61;100.00;101154.13;5025870;28;20064;-81
2022/10/10 00:26:43;;;;;;;8.52;4.28;;;;;;;8.69;100.00;101159.06;5055650;28;20116;-81
2022/10/10 00:29:08;;;;;;;8.95;3.92;;;;;;;8.59;100.00;101131.50;5042792;28;20094;-82
2022/10/10 00:31:33;;;;;;;9.20;4.30;;;;;;;8.50;100.00;101141.19;5060163;28;20107;-81
2022/10/10 00:33:59;;;;;;;12.15;4.80;;;;;;;8.55;100.00;101152.66;5058772;28;20029;-82
2022/10/10 00:36:25;;;;;;;9.10;4.25;;;;;;;8.61;100.00;101154.13;5058414;28;20037;-82
2022/10/10 00:38:50;;;;;;;7.35;3.55;;;;;;;8.57;100.00;101150.69;5058708;28;20028;-81
2022/10/10 00:41:16;;;;;;;7.03;3.65;;;;;;;8.56;100.00;101143.50;5025217;28;20033;-81
2022/10/10 00:43:41;;;;;;;7.32;3.65;;;;;;;8.51;100.00;101145.66;5042279;28;20555;-80
2022/10/10 00:46:07;;;;;;;8.05;3.85;;;;;;;8.53;100.00;101148.28;5041764;28;20077;-81
2022/10/10 00:48:40;;;;;;;14.10;4.80;;;;;;;8.45;100.00;101135.16;5055958;28;20044;-82
2022/10/10 00:51:10;;;;;;;9.98;3.72;;;;;;;8.43;100.00;101143.44;5041105;28;20392;-82
2022/10/10 00:53:46;;;;;;;8.43;3.85;;;;;;;8.45;100.00;101141.47;5057610;28;20052;-83
2022/10/10 00:56:13;;;;;;;8.57;4.30;;;;;;;8.43;100.00;101148.88;5041460;28;20484;-81
2022/10/10 00:58:42;;;;;;;8.27;4.38;;;;;;;8.44;100.00;101141.56;5041561;28;20037;-81
2022/10/10 01:01:07;;;;;;;5.88;3.83;;;;;;;8.43;100.00;101140.72;5059545;28;20037;-81
2022/10/10 01:03:33;;;;;;;9.13;4.25;;;;;;;8.38;100.00;101140.09;5041652;28;20047;-82
2022/10/10 01:05:59;;;;;;;8.15;4.78;;;;;;;8.43;100.00;101145.28;5021868;28;20350;-82
2022/10/10 01:08:24;;;;;;;8.00;3.75;;;;;;;8.35;100.00;101139.44;5042590;28;20105;-82
2022/10/10 01:10:58;;;;;;;7.10;3.47;;;;;;;8.27;100.00;101129.00;5059014;28;20523;-82
2022/10/10 01:13:42;;;;;;;8.52;3.83;;;;;;;8.24;100.00;101140.13;5042491;28;20595;-81
2022/10/10 01:16:37;;;;;;;7.70;4.20;;;;;;;8.24;100.00;101121.03;5056455;28;20048;-82
2022/10/10 01:19:10;;;;;;;6.50;3.78;;;;;;;8.21;100.00;101130.28;5058997;28;20029;-82
2022/10/10 01:21:55;;;;;;;;;;;;;;;8.21;100.00;101130.28;5057271;28;20037;-81
2022/10/10 01:24:32;;;;;;;6.32;4.10;;;;;;;8.22;100.00;101122.97;5039648;28;19913;-82
2022/10/10 01:27:20;;;;;;;11.00;4.88;;;;;;;8.13;100.00;101115.38;5039971;28;20033;-81
2022/10/10 01:30:00;;;;;;;11.10;4.63;;;;;;;8.16;100.00;101118.78;5040045;28;20373;-82
2022/10/10 01:32:45;;;;;;;11.05;4.22;;;;;;;8.23;100.00;101124.72;5057311;28;20043;-82
2022/10/10 01:35:17;;;;;;;8.05;4.20;;;;;;;8.19;100.00;101121.31;5047964;28;20370;-83
2022/10/10 01:37:49;;;;;;;12.98;3.92;;;;;;;8.15;100.00;101111.59;5057903;28;20033;-83
2022/10/10 01:40:15;;;;;;;7.15;3.55;;;;;;;8.13;100.00;101115.38;5037138;28;20037;-83
2022/10/10 01:42:54;;;;;;;8.10;4.03;;;;;;;8.09;100.00;101107.41;5058134;28;20404;-83
2022/10/10 01:45:21;;;;;;;7.63;3.85;;;;;;;8.12;100.00;101103.63;5040859;28;20039;-83
2022/10/10 01:47:47;;;;;;;13.35;4.43;;;;;;;8.08;100.00;101096.59;5058392;28;20063;-82
2022/10/10 01:50:18;;;;;;;7.55;3.90;;;;;;;8.05;100.00;101100.41;5041763;28;20090;-82
2022/10/10 01:52:56;;;;;;;9.75;3.75;;;;;;;8.04;100.00;101092.31;5058468;28;20542;-82
2022/10/10 01:55:28;;;;;;;6.80;3.88;;;;;;;8.05;100.00;101094.06;5053804;28;20056;-82
2022/10/10 01:57:53;;;;;;;5.82;4.47;;;;;;;8.05;100.00;101085.88;5041841;28;20489;-82
2022/10/10 02:00:19;;;;;;;7.05;4.32;;;;;;;8.01;100.00;101087.94;5041976;28;20126;-81
2022/10/10 02:03:12;;;;;;;8.27;4.50;;;;;;;7.99;100.00;101080.84;5038287;28;20188;-81
2022/10/10 02:05:46;;;;;;;6.60;3.78;;;;;;;7.98;100.00;101087.25;5012539;28;20463;-82
2022/10/10 02:08:24;;;;;;;6.40;4.28;;;;;;;7.95;100.00;101084.72;5043339;28;20037;-82
2022/10/10 02:10:59;;;;;;;8.82;4.32;;;;;;;7.97;100.00;101086.41;5060041;28;20032;-83
2022/10/10 02:13:31;;;;;;;5.60;4.22;;;;;;;7.91;100.00;101076.75;5060617;28;20103;-83
2022/10/10 02:16:00;;;;;;;8.20;4.47;;;;;;;7.86;100.00;101070.72;5053601;28;20392;-83
2022/10/10 02:18:30;;;;;;;10.45;4.30;;;;;;;7.91;100.00;101075.88;5041901;28;20424;-83
2022/10/10 02:20:57;;;;;;;11.32;4.40;;;;;;;7.84;100.00;101069.94;5043457;28;20044;-83
2022/10/10 02:23:22;;;;;;;9.93;4.60;;;;;;;7.83;100.00;101070.03;5013710;28;20029;-84
2022/10/10 02:25:55;;;;;;;8.00;4.80;;;;;;;7.74;100.00;101044.28;5048531;28;20170;-81
2022/10/10 02:28:31;;;;;;;5.40;4.35;;;;;;;7.91;100.00;101065.84;5063365;28;20041;-82
2022/10/10 02:31:02;;;;;;;5.82;3.97;;;;;;;7.93;100.00;101067.59;5032001;28;20391;-81
2022/10/10 02:33:38;;;;;;;6.72;4.32;;;;;;;7.89;100.00;101067.78;5063034;28;20491;-83
2022/10/10 02:36:04;;;;;;;7.30;4.25;;;;;;;7.94;100.00;101063.91;5063726;28;20080;-83
2022/10/10 02:38:30;;;;;;;9.52;4.90;;;;;;;7.93;100.00;101062.16;5028781;28;20037;-82
2022/10/10 02:41:02;;;;;;;12.23;5.05;;;;;;;7.94;100.00;101059.31;5042586;28;20059;-82
2022/10/10 02:43:30;;;;;;;10.90;4.85;;;;;;;7.98;100.00;101063.59;5060490;28;20065;-82
2022/10/10 02:45:55;;;;;;;6.30;4.90;;;;;;;7.94;100.00;101067.50;5061343;28;20029;-82
2022/10/10 02:48:21;;;;;;;9.13;5.15;;;;;;;7.87;100.00;101069.75;5028440;28;20507;-82
2022/10/10 02:50:47;;;;;;;10.35;5.03;;;;;;;7.74;100.00;101060.63;5060447;28;20037;-82
2022/10/10 02:53:12;;;;;;;10.77;5.03;;;;;;;7.65;100.00;101034.81;5028226;28;20056;-82
2022/10/10 02:55:38;;;;;;;9.80;4.82;;;;;;;7.78;100.00;101061.28;5057522;28;20057;-82
2022/10/10 02:58:03;;;;;;;8.88;5.35;;;;;;;7.91;100.00;101063.13;5059953;28;20068;-82
2022/10/10 03:00:29;;;;;;;10.60;4.93;;;;;;;7.89;100.00;101048.72;5024788;28;20041;-83
2022/10/10 03:02:54;;;;;;;10.98;5.03;;;;;;;7.81;100.00;101053.78;5041908;28;20277;-83
2022/10/10 03:05:20;;;;;;;10.32;5.18;;;;;;;7.83;100.00;101056.41;5043443;28;20021;-82
2022/10/10 03:07:45;;;;;;;11.50;5.15;;;;;;;7.75;100.00;101046.00;5043862;28;20037;-82
2022/10/10 03:10:11;;;;;;;9.60;4.75;;;;;;;7.85;100.00;101051.72;5061705;28;20037;-82
2022/10/10 03:12:36;;;;;;;7.68;5.40;;;;;;;7.72;100.00;101046.19;5029550;28;20082;-82
2022/10/10 03:15:03;;;;;;;12.70;6.10;;;;;;;7.76;100.00;101047.75;5060238;28;20032;-83
2022/10/10 03:17:28;;;;;;;12.50;6.00;;;;;;;7.65;100.00;101034.81;5060575;28;20400;-81
2022/10/10 03:19:54;;;;;;;13.45;5.80;;;;;;;7.69;100.00;101033.66;5043918;28;20055;-83
2022/10/10 03:22:19;;;;;;;12.85;5.90;;;;;;;7.70;100.00;101027.22;5027303;28;20051;-82
2022/10/10 03:24:45;;;;;;;11.45;5.85;;;;;;;7.71;100.00;101037.16;5046942;28;20067;-83
2022/10/10 03:27:10;;;;;;;11.55;6.05;;;;;;;7.77;100.00;101041.31;5032152;28;20080;-83
2022/10/10 03:29:36;;;;;;;12.63;5.85;;;;;;;7.80;100.00;101043.84;5033355;28;20043;-82
2022/10/10 03:32:01;;;;;;;11.35;5.82;;;;;;;7.74;100.00;101033.38;5047515;28;20040;-81
2022/10/10 03:34:26;;;;;;;9.02;6.20;;;;;;;7.73;100.00;101024.28;5046282;28;20044;-82
2022/10/10 03:36:52;;;;;;;14.88;6.10;;;;;;;7.85;100.00;101033.50;5046556;28;20036;-82
2022/10/10 03:39:18;;;;;;;9.65;6.13;;;;;;;7.77;100.00;101037.72;5045348;28;20040;-82
2022/10/10 03:41:43;;;;;;;11.23;6.18;;;;;;;7.67;100.00;101029.25;5040534;28;20366;-81
2022/10/10 03:44:09;;;;;;;12.85;6.55;;;;;;;7.64;100.00;101030.34;5025432;28;20030;-82
2022/10/10 03:46:34;;;;;;;12.30;5.95;;;;;;;7.54;100.00;101024.63;5028499;28;20033;-82
2022/10/10 03:48:59;;;;;;;11.43;6.28;;;;;;;7.62;100.00;101029.56;5027490;28;20037;-82
2022/10/10 03:51:25;;;;;;;10.23;6.43;;;;;;;7.49;100.00;101021.31;5041636;28;20036;-82
2022/10/10 03:53:50;;;;;;;10.77;7.22;;;;;;;7.58;100.00;101035.31;5031201;28;20451;-83
2022/10/10 03:56:16;;;;;;;10.10;6.20;;;;;;;7.60;100.00;101022.47;5014424;28;20036;-83
2022/10/10 03:58:42;;;;;;;11.80;6.60;;;;;;;7.59;100.00;101032.50;5011478;28;20037;-83
2022/10/10 04:01:07;;;;;;;14.85;6.63;;;;;;;7.45;100.00;101021.59;5027475;28;20040;-83
2022/10/10 04:03:32;;;;;;;8.52;6.30;;;;;;;7.51;100.00;101037.53;5041281;28;20049;-82
2022/10/10 04:05:58;;;;;;;9.20;6.70;;;;;;;7.44;100.00;101028.88;5026079;28;21271;-83
2022/10/10 04:08:24;;;;;;;12.27;6.47;;;;;;;7.40;100.00;101027.34;5042996;28;20131;-81
2022/10/10 04:10:51;;;;;;;15.65;6.85;;;;;;;7.45;100.00;101030.63;5023973;28;20061;-83
2022/10/10 04:13:17;;;;;;;15.73;6.20;;;;;;;7.30;100.00;101029.75;5060172;28;20443;-82
2022/10/10 04:15:43;;;;;;;11.00;6.63;;;;;;;7.38;100.00;101029.28;5026606;28;20043;-82
2022/10/10 04:18:08;;;;;;;10.48;6.50;;;;;;;7.34;100.00;101025.84;5037273;28;20485;-82
2022/10/10 04:20:33;;;;;;;8.68;6.38;;;;;;;7.33;100.00;101029.56;5060100;28;20039;-81
2022/10/10 04:22:59;;;;;;;10.82;6.35;;;;;;;7.29;100.00;101021.69;5043124;28;20033;-82
2022/10/10 04:25:25;;;;;;;13.10;6.50;;;;;;;7.32;100.00;101029.66;5042132;28;20039;-80
2022/10/10 04:27:50;;;;;;;12.98;6.72;;;;;;;7.35;100.00;101026.75;5044615;28;20041;-81
2022/10/10 04:30:15;;;;;;;13.50;6.18;;;;;;;7.34;100.00;101028.56;5028348;28;20037;-82
2022/10/10 04:32:41;;;;;;;9.32;6.13;;;;;;;7.38;100.00;101021.13;5026569;28;20083;-83
2022/10/10 04:35:07;;;;;;;12.80;5.95;;;;;;;7.28;100.00;101029.00;5015998;28;20056;-82
2022/10/10 04:37:33;;;;;;;12.02;5.82;;;;;;;7.25;100.00;101025.59;5057304;28;20037;-82
2022/10/10 04:39:58;;;;;;;11.38;6.88;;;;;;;7.30;100.00;101020.72;5034429;28;20068;-83
2022/10/10 04:42:24;;;;;;;13.48;6.28;;;;;;;7.32;100.00;101027.81;5025967;28;20037;-83
2022/10/10 04:44:49;;;;;;;13.02;6.20;;;;;;;7.31;100.00;101020.63;5027662;28;20051;-82
2022/10/10 04:47:15;;;;;;;10.15;6.13;;;;;;;7.28;100.00;101025.38;5026094;28;20028;-82
2022/10/10 04:49:40;;;;;;;8.63;6.68;;;;;;;7.33;100.00;101020.53;5042010;28;20029;-84
2022/10/10 04:52:07;;;;;;;12.43;6.40;;;;;;;7.35;100.00;101016.72;5042019;28;20038;-83
2022/10/10 04:54:33;;;;;;;8.65;5.55;;;;;;;7.41;100.00;101028.19;5036557;28;20033;-83
2022/10/10 04:56:58;;;;;;;9.82;6.18;;;;;;;7.37;100.00;101022.06;5042316;28;20029;-83
2022/10/10 04:59:24;;;;;;;10.55;6.57;;;;;;;7.32;100.00;101029.66;5025766;28;20033;-84
2022/10/10 05:01:49;;;;;;;16.42;6.32;;;;;;;7.33;100.00;101021.41;5047257;28;20045;-83
2022/10/10 05:04:15;;;;;;;8.25;5.50;;;;;;;7.37;100.00;101035.69;5041299;28;20046;-83
2022/10/10 05:06:40;;;;;;;9.82;5.97;;;;;;;7.35;100.00;101024.03;5042766;28;20035;-82
2022/10/10 05:09:06;;;;;;;11.63;5.75;;;;;;;7.19;100.00;101024.09;5043373;28;20045;-83
2022/10/10 05:11:31;;;;;;;9.90;5.43;;;;;;;7.17;100.00;101020.59;5048713;28;20511;-82
2022/10/10 05:13:57;;;;;;;9.30;5.55;;;;;;;7.31;100.00;101023.34;5045037;28;20098;-83
2022/10/10 05:16:22;;;;;;;8.68;6.15;;;;;;;7.29;100.00;101028.00;5032959;28;20040;-82
2022/10/10 05:18:48;;;;;;;10.65;5.85;;;;;;;7.31;100.00;101031.53;5040693;28;20140;-82
2022/10/10 05:21:13;;;;;;;8.02;5.70;;;;;;;7.26;100.00;101017.28;5058788;28;20480;-82
2022/10/10 05:23:40;;;;;;;11.45;6.80;;;;;;;7.28;100.00;101028.09;5009383;28;20033;-81
2022/10/10 05:26:07;;;;;;;10.50;5.78;;;;;;;7.23;100.00;101011.16;5042632;28;20191;-83
2022/10/10 05:28:34;;;;;;;12.57;6.10;;;;;;;7.31;100.00;101025.19;5042463;28;20028;-83
2022/10/10 05:30:59;;;;;;;14.40;5.93;;;;;;;7.23;100.00;101020.22;5043270;28;20037;-83
2022/10/10 05:33:25;;;;;;;9.52;5.93;;;;;;;7.23;100.00;101025.69;5053576;28;20072;-83
2022/10/10 05:35:50;;;;;;;11.77;6.22;;;;;;;7.30;100.00;101031.63;5041878;28;20033;-83
2022/10/10 05:38:16;;;;;;;13.23;6.35;;;;;;;7.30;100.00;101027.03;5025961;28;20033;-83
2022/10/10 05:40:41;;;;;;;14.48;5.80;;;;;;;7.27;100.00;101021.78;5042326;28;20155;-84
2022/10/10 05:43:07;;;;;;;13.82;6.43;;;;;;;7.27;100.00;101027.22;5057598;28;20029;-83
2022/10/10 05:45:32;;;;;;;11.98;6.03;;;;;;;7.26;100.00;101021.88;5025965;28;20115;-83
2022/10/10 05:47:58;;;;;;;10.43;5.68;;;;;;;7.25;100.00;101025.59;5026826;28;20100;-84
2022/10/10 05:50:32;;;;;;;8.20;5.60;;;;;;;7.20;100.00;101019.53;5060351;28;20537;-84
2022/10/10 05:52:57;;;;;;;12.70;6.03;;;;;;;7.14;100.00;101024.38;5042926;28;20025;-84
2022/10/10 05:55:23;;;;;;;9.00;5.85;;;;;;;7.24;100.00;101021.09;5059309;28;20055;-84
2022/10/10 05:57:48;;;;;;;8.90;5.80;;;;;;;7.20;100.00;101019.53;5045520;28;20029;-83
2022/10/10 06:00:14;;;;;;;10.18;5.75;;;;;;;7.22;100.00;101021.19;5047598;28;20037;-83
2022/10/10 06:02:39;;;;;;;10.13;6.00;;;;;;;7.21;100.00;101026.72;5048890;28;20044;-82
2022/10/10 06:05:05;;;;;;;13.07;6.53;;;;;;;7.25;100.00;101023.72;5062445;28;20065;-83
2022/10/10 06:07:31;;;;;;;14.00;6.10;;;;;;;7.30;100.00;101027.03;5043465;28;20045;-83
2022/10/10 06:09:56;;;;;;;13.63;6.43;;;;;;;7.34;100.00;101033.16;5037160;28;20029;-83
2022/10/10 06:12:22;;;;;;;12.30;6.60;;;;;;;7.35;100.00;101024.91;5029263;28;20071;-83
2022/10/10 06:14:47;;;;;;;16.85;6.03;;;;;;;7.33;100.00;101025.97;5027802;28;20037;-82
2022/10/10 06:17:13;;;;;;;11.35;6.10;;;;;;;7.46;100.00;101028.78;5058535;28;20061;-82
2022/10/10 06:19:38;;;;;;;14.63;5.78;;;;;;;7.37;100.00;101022.06;5046118;28;20075;-81
2022/10/10 06:22:04;;;;;;;10.95;5.97;;;;;;;7.47;100.00;101036.00;5027729;28;20037;-83
2022/10/10 06:24:30;;;;;;;10.02;6.18;;;;;;;7.51;100.00;101037.53;5029969;28;20040;-84
2022/10/10 06:26:55;;;;;;;9.73;6.05;;;;;;;7.46;100.00;101026.94;5063506;28;20052;-83
2022/10/10 06:29:21;;;;;;;14.07;6.57;;;;;;;7.58;100.00;101029.88;5044154;28;20045;-85
2022/10/10 06:31:46;;;;;;;22.58;6.35;;;;;;;7.62;100.00;101028.69;5027800;28;20508;-82
2022/10/10 06:34:12;;;;;;;13.70;6.38;;;;;;;7.60;100.00;101033.38;5055810;28;20106;-83
2022/10/10 06:36:37;;;;;;;11.57;5.70;;;;;;;7.64;100.00;101032.19;5045211;28;20039;-83
2022/10/10 06:39:03;;;;;;;9.32;5.25;;;;;;;7.71;100.00;101028.09;5047307;28;20116;-84
2022/10/10 06:41:28;;;;;;;8.00;5.50;;;;;;;7.68;100.00;101020.13;5025463;28;20029;-83
2022/10/10 06:43:54;;;;;;;11.60;6.18;;;;;;;7.82;100.00;101041.91;5046553;28;20030;-83
2022/10/10 06:46:19;;;;;;;9.15;5.53;;;;;;;7.88;100.00;101041.50;5061858;28;20052;-84
2022/10/10 06:48:45;;;;;;;10.68;5.53;;;;;;;7.86;100.00;101035.28;5032897;28;20037;-83
2022/10/10 06:51:14;;;;;;;9.63;6.18;;;;;;;7.89;100.00;101046.00;5065600;28;20044;-82
2022/10/10 06:53:40;;;;;;;9.85;6.40;;;;;;;7.89;100.00;101045.13;5043020;28;20024;-82
2022/10/10 06:56:06;;;;;;;11.15;5.85;;;;;;;7.89;100.00;101040.53;5045022;28;20039;-81
2022/10/10 06:58:32;;;;;;;13.63;6.10;;;;;;;7.95;100.00;101052.00;5028395;28;20032;-83
2022/10/10 07:01:01;;;;;;;14.43;6.85;;;;;;;7.94;100.00;101042.97;5037505;28;20039;-81
2022/10/10 07:03:28;;;;;;;13.85;6.25;;;;;;;7.98;100.00;101043.63;5061888;28;20514;-82
2022/10/10 07:05:57;;;;;;;13.18;7.03;;;;;;;8.08;100.00;101050.22;5062678;28;20044;-82
2022/10/10 07:08:23;;;;;;;14.98;6.20;;;;;;;8.18;100.00;101051.41;5059697;28;20033;-80
2022/10/10 07:10:50;;;;;;;18.17;6.80;;;;;;;8.16;100.00;101034.25;5058599;28;20029;-81
2022/10/10 07:13:15;;;;;;;12.55;6.47;;;;;;;8.37;100.00;101061.94;5046657;28;20067;-81
2022/10/10 07:15:42;;;;;;;11.35;6.03;;;;;;;8.48;100.00;101050.34;5025951;28;20044;-83
2022/10/10 07:18:09;;;;;;;14.57;5.97;;;;;;;8.67;100.00;101052.69;5053910;28;20060;-82
2022/10/10 07:20:36;;;;;;;13.02;6.43;;;;;;;8.80;100.00;101058.19;5034691;28;20046;-83
2022/10/10 07:23:03;;;;;;;19.35;6.30;;;;;;;9.05;100.00;101067.44;5035889;28;20520;-82
2022/10/10 07:25:28;;;;;;;12.07;5.95;;;;;;;9.17;100.00;101066.59;5044320;28;20509;-82
2022/10/10 07:27:55;;;;;;;10.73;6.00;;;;;;;9.34;100.00;101070.84;5058018;28;20033;-83
2022/10/10 07:30:22;;;;;;;12.05;6.07;;;;;;;9.37;100.00;101068.78;5062526;28;20094;-83
2022/10/10 07:32:47;;;;;;;11.98;6.20;;;;;;;9.54;100.00;101075.78;5044722;28;20030;-82
2022/10/10 07:35:13;;;;;;;10.55;6.20;;;;;;;9.67;100.00;101070.31;5041143;28;20021;-83
2022/10/10 07:37:38;;;;;;;10.43;6.03;;;;;;;9.83;100.00;101077.41;5043760;28;20115;-83
2022/10/10 07:40:07;;;;;;;11.00;6.57;;;;;;;10.03;100.00;101087.75;5058813;28;20056;-82
2022/10/10 07:42:32;;;;;;;9.93;6.10;;;;;;;10.23;100.00;101083.56;5062503;28;20025;-82
2022/10/10 07:44:58;;;;;;;15.23;5.78;;;;;;;10.46;100.00;101075.53;5061865;28;20041;-81
2022/10/10 07:47:23;;;;;;;11.25;6.32;;;;;;;10.59;100.00;101075.47;5044059;28;20099;-83
2022/10/10 07:49:49;;;;;;;16.38;6.10;;;;;;;10.84;100.00;101074.50;5060074;28;20041;-83
2022/10/10 07:52:14;;;;;;;11.85;5.32;;;;;;;10.91;100.00;101083.13;5062144;28;20041;-83
2022/10/10 07:54:40;;;;;;;13.52;5.85;;;;;;;11.24;100.00;101078.75;5044031;28;20033;-82
2022/10/10 07:57:05;;;;;;;10.95;5.85;;;;;;;11.62;100.00;101086.66;5028539;28;20037;-83
2022/10/10 07:59:32;;;;;;;16.63;5.25;;;;;;;11.82;100.00;101076.81;5045259;28;20065;-82
2022/10/10 08:01:59;;;;;;;12.77;5.57;;;;;;;11.90;100.00;101088.06;5043979;28;20452;-82
2022/10/10 08:04:24;;;;;;;15.05;5.57;;;;;;;12.00;100.00;101093.69;5027376;28;20090;-83
2022/10/10 08:06:50;;;;;;;16.83;5.80;;;;;;;12.22;100.00;101084.56;5028175;28;20049;-83
2022/10/10 08:09:15;;;;;;;6.68;5.18;;;;;;;12.69;100.00;101087.97;5043641;28;20088;-82
2022/10/10 08:11:40;;;;;;;8.60;4.53;;;;;;;13.11;100.00;101102.81;5035093;28;20056;-82
2022/10/10 08:14:06;;;;;;;12.93;5.07;;;;;;;13.11;100.00;101097.31;5048912;28;20082;-84
2022/10/10 08:16:31;;;;;;;15.55;5.50;;;;;;;13.36;100.00;101099.72;5028961;28;20040;-83
2022/10/10 08:18:57;;;;;;;7.95;3.90;;;;;;;13.54;100.00;101099.09;5044162;28;20037;-83
2022/10/10 08:21:22;;;;;;;7.95;4.45;;;;;;;13.51;100.00;101097.50;5062422;28;20047;-83
2022/10/10 08:23:48;;;;;;;11.45;4.05;;;;;;;13.92;100.00;101109.47;5030525;28;20025;-82
2022/10/10 08:26:15;;;;;;;21.88;6.22;;;;;;;14.21;100.00;101113.38;5061901;28;20362;-84
2022/10/10 08:28:41;;;;;;;10.85;3.95;;;;;;;14.26;100.00;101111.06;5061193;28;20477;-83
2022/10/10 08:31:08;;;;;;;17.30;3.78;;;;;;;14.67;100.00;101111.94;5042097;28;20071;-85
2022/10/10 08:33:35;;;;;;;12.07;4.25;;;;;;;14.81;100.00;101108.78;5060500;28;20123;-85
2022/10/10 08:36:08;;;;;;;7.55;3.40;;;;;;;15.00;100.00;101109.78;5061049;28;20103;-86
2022/10/10 08:38:35;;;;;;;6.55;3.40;;;;;;;15.49;100.00;101118.06;5045127;28;20037;-86
2022/10/10 08:41:07;;;;;;;6.82;3.30;;;;;;;15.27;100.00;101106.31;5040499;28;20045;-84
2022/10/10 08:43:42;;;;;;;11.68;3.85;;;;;;;14.63;100.00;101111.34;5040591;28;20082;-85
2022/10/10 08:46:14;;;;;;;12.60;3.75;;;;;;;14.69;100.00;101115.41;5061309;28;20461;-84
2022/10/10 08:48:42;;;;;;;8.13;4.53;;;;;;;15.15;100.00;101122.16;5053600;28;20136;-84
2022/10/10 08:51:16;;;;;;;8.73;4.70;;;;;;;15.22;100.00;101120.56;5044227;28;20037;-85
2022/10/10 08:53:50;;;;;;;11.23;3.63;;;;;;;16.13;100.00;101122.00;5062152;28;20036;-84
2022/10/10 08:56:22;;;;;;;6.55;3.35;;;;;;;15.61;100.00;101114.13;5071286;28;20036;-85
2022/10/10 08:58:56;;;;;;;15.33;4.10;;;;;;;15.68;100.00;101114.41;5049704;28;20102;-85
2022/10/10 09:01:26;;;;;;;11.77;4.13;;;;;;;15.44;100.00;101113.84;5032031;28;20295;-84
2022/10/10 09:03:54;;;;;;;10.25;3.45;;;;;;;15.63;100.00;101092.78;5050957;28;20026;-83
2022/10/10 09:06:25;;;;;;;8.60;3.47;;;;;;;15.58;100.00;101120.81;5042479;28;20489;-83
2022/10/10 09:09:19;;;;;;;11.10;4.15;;;;;;;15.79;100.00;101119.81;5043413;28;20031;-82
2022/10/10 09:11:53;;;;;;;10.93;3.70;;;;;;;16.32;100.00;101119.16;5060993;28;20537;-84
2022/10/10 09:14:31;;;;;;;17.58;3.45;;;;;;;16.54;100.00;101101.31;5053859;28;20084;-84
2022/10/10 09:16:59;;;;;;;7.53;3.95;;;;;;;16.32;100.00;101112.78;5047547;28;20033;-84
2022/10/10 09:19:50;;;;;;;7.45;3.33;;;;;;;16.20;100.00;101114.88;5045040;28;20032;-83
2022/10/10 09:22:21;;;;;;;4.50;2.85;;;;;;;16.19;100.00;101120.53;5042547;28;20424;-83
2022/10/10 09:24:58;;;;;;;8.88;3.20;;;;;;;16.34;100.00;101130.06;5056459;28;20049;-83
2022/10/10 09:27:34;;;;;;;9.93;3.30;;;;;;;16.25;100.00;101119.91;5056864;28;20034;-83
2022/10/10 09:30:12;;;;;;;5.95;3.10;;;;;;;16.62;100.00;101124.53;5039751;28;20024;-84
2022/10/10 09:32:48;;;;;;;11.43;3.50;;;;;;;16.50;100.00;101134.94;5070123;28;20067;-82
2022/10/10 09:35:20;;;;;;;7.65;3.42;;;;;;;16.11;100.00;101138.72;5055809;28;20511;-83
2022/10/10 09:37:49;;;;;;;6.85;3.80;;;;;;;16.81;100.00;101129.94;5060249;28;20427;-82
2022/10/10 09:40:18;;;;;;;10.07;3.92;;;;;;;16.86;100.00;101124.84;5044163;28;20567;-82
2022/10/10 09:42:44;;;;;;;9.90;3.30;;;;;;;17.19;100.00;101127.94;5059676;28;20411;-83
2022/10/10 09:45:25;;;;;;;6.53;3.20;;;;;;;17.61;100.00;101134.69;5060286;28;20492;-83
2022/10/10 09:47:53;;;;;;;7.90;3.88;;;;;;;17.86;100.00;101135.78;5047417;28;20029;-83
2022/10/10 09:50:19;;;;;;;5.00;3.10;;;;;;;17.41;100.00;101140.44;5044120;28;20029;-83
2022/10/10 09:52:46;;;;;;;8.65;3.15;;;;;;;17.44;100.00;101148.41;5059924;28;20480;-83
2022/10/10 09:55:33;;;;;;;7.55;3.10;;;;;;;17.66;100.00;101156.38;5051699;28;20037;-85
2022/10/10 09:58:19;;;;;;;9.63;3.42;;;;;;;17.45;100.00;101158.47;5037637;28;20082;-83
2022/10/10 10:00:45;;;;;;;6.60;2.55;;;;;;;17.94;100.00;101154.41;5057063;28;20029;-83
2022/10/10 10:03:13;;;;;;;6.57;2.80;;;;;;;18.35;100.00;101151.88;5055241;28;20064;-83
2022/10/10 10:05:42;;;;;;;6.65;3.22;;;;;;;18.46;100.00;101154.38;5040820;28;20493;-84
2022/10/10 10:08:30;;;;;;;6.85;3.00;;;;;;;18.35;100.00;101144.41;5057252;28;20086;-85
2022/10/10 10:10:57;;;;;;;11.10;3.00;;;;;;;18.17;100.00;101147.25;5058557;28;20041;-84
2022/10/10 10:13:34;;;;;;;8.45;2.88;;;;;;;17.75;100.00;101153.53;5038269;28;20049;-86
2022/10/10 10:16:10;;;;;;;7.22;2.97;;;;;;;18.02;100.00;101145.25;5056616;28;20099;-85
2022/10/10 10:18:46;;;;;;;8.23;2.28;;;;;;;18.12;100.00;101154.34;5039810;28;20021;-85
2022/10/10 10:21:21;;;;;;;6.72;2.50;;;;;;;18.09;100.00;101158.31;5059015;28;20023;-85
2022/10/10 10:23:57;;;;;;;6.95;2.47;;;;;;;17.99;100.00;101160.31;5059901;28;20053;-85
2022/10/10 10:26:43;;;;;;;10.88;2.80;;;;;;;17.65;100.00;101155.53;5059996;28;20025;-84
2022/10/10 10:29:36;;;;;;;5.15;2.30;;;;;;;17.61;100.00;101156.84;5055737;28;20060;-85
2022/10/10 10:32:24;;;;;;;15.57;2.70;;;;;;;17.45;100.00;101163.16;5022199;28;20052;-85
2022/10/10 10:35:34;;;;;;;7.60;2.72;;;;;;;17.41;100.00;101158.94;5069825;28;20056;-85
2022/10/10 10:38:38;;;;;;;7.70;2.13;;;;;;;17.27;100.00;101160.38;5074494;28;20125;-85
2022/10/10 10:41:15;;;;;;;8.00;2.83;;;;;;;17.31;100.00;101158.16;5074120;28;20045;-84
2022/10/10 10:43:44;;;;;;;10.98;3.08;;;;;;;17.17;100.00;101159.59;5059181;28;20063;-84
2022/10/10 10:46:30;;;;;;;9.57;2.65;;;;;;;17.20;100.00;101165.69;5066692;28;20037;-84
2022/10/10 10:49:01;;;;;;;9.75;2.90;;;;;;;17.20;100.00;101162.00;5031076;28;20048;-85
2022/10/10 10:51:49;;;;;;;12.95;2.85;;;;;;;17.34;100.00;101158.72;5068569;28;20029;-86
2022/10/10 10:54:24;;;;;;;9.77;3.50;;;;;;;17.41;100.00;101173.66;5064946;28;20037;-85
2022/10/10 10:56:54;;;;;;;8.48;2.90;;;;;;;17.29;100.00;101166.63;5067760;28;20029;-84
2022/10/10 10:59:25;;;;;;;11.95;3.13;;;;;;;17.25;100.00;101167.97;5071126;28;20037;-84
2022/10/10 11:02:17;;;;;;;11.57;2.80;;;;;;;17.33;100.00;101159.75;5063812;28;20036;-85
2022/10/10 11:05:10;;;;;;;5.97;3.25;;;;;;;17.23;100.00;101168.13;5044173;28;20052;-84
2022/10/10 11:08:17;;;;;;;14.63;2.97;;;;;;;17.18;100.00;101164.09;5061287;28;20124;-85
2022/10/10 11:10:53;;;;;;;8.32;2.35;;;;;;;17.51;100.00;101169.94;5061196;28;20068;-85
2022/10/10 11:13:37;;;;;;;10.55;2.25;;;;;;;17.91;100.00;101172.19;5052352;28;20124;-85
2022/10/10 11:16:09;;;;;;;8.50;2.00;;;;;;;17.96;100.00;101178.13;5062190;28;20025;-85
2022/10/10 11:18:48;;;;;;;9.60;2.97;;;;;;;17.71;100.00;101173.38;5044388;28;20374;-85
2022/10/10 11:21:19;;;;;;;11.02;2.55;;;;;;;17.86;100.00;101182.88;5059947;28;20534;-85
2022/10/10 11:23:48;;;;;;;10.20;1.98;;;;;;;17.91;100.00;101179.66;5060709;28;20033;-85
2022/10/10 11:26:22;;;;;;;8.20;2.35;;;;;;;17.89;100.00;101187.22;5059297;28;20040;-85
2022/10/10 11:28:56;;;;;;;13.55;2.75;;;;;;;18.06;100.00;101174.41;5060360;28;20090;-83
2022/10/10 11:31:38;;;;;;;9.98;2.25;;;;;;;18.24;100.00;101175.19;5061738;28;20033;-83